sensor_id;sensor_type;location;lat;lon;timestamp;pressure;altitude;pressure_sealevel;temperature;humidity
85343;BME280;75760;31.390;34.904;2024-01-30T00:01:39;95253.41;;;8.41;81.69
85343;BME280;75760;31.390;34.904;2024-01-30T00:04:05;95249.31;;;8.53;81.34
85343;BME280;75760;31.390;34.904;2024-01-30T00:06:31;95248.75;;;8.45;81.75
85343;BME280;75760;31.390;34.904;2024-01-30T00:08:56;95243.84;;;8.44;81.45
85343;BME280;75760;31.390;34.904;2024-01-30T00:11:22;95244.34;;;8.39;81.64
85343;BME280;75760;31.390;34.904;2024-01-30T00:13:51;95252.31;;;8.55;80.84
85343;BME280;75760;31.390;34.904;2024-01-30T00:16:21;95245.50;;;8.22;82.08
85343;BME280;75760;31.390;34.904;2024-01-30T00:18:48;95242.16;;;8.01;82.73
85343;BME280;75760;31.390;34.904;2024-01-30T00:21:14;95240.66;;;8.00;83.31
85343;BME280;75760;31.390;34.904;2024-01-30T00:23:39;95242.00;;;8.08;82.76
85343;BME280;75760;31.390;34.904;2024-01-30T00:26:05;95237.75;;;8.11;82.93
85343;BME280;75760;31.390;34.904;2024-01-30T00:28:31;95233.59;;;8.10;82.62
85343;BME280;75760;31.390;34.904;2024-01-30T00:30:57;95238.59;;;7.92;82.97
85343;BME280;75760;31.390;34.904;2024-01-30T00:33:22;95236.44;;;8.03;83.36
85343;BME280;75760;31.390;34.904;2024-01-30T00:35:48;95232.47;;;7.95;83.39
85343;BME280;75760;31.390;34.904;2024-01-30T00:38:13;95231.88;;;8.03;83.23
85343;BME280;75760;31.390;34.904;2024-01-30T00:40:39;95228.94;;;7.98;83.72
85343;BME280;75760;31.390;34.904;2024-01-30T00:43:04;95227.03;;;7.98;83.59
85343;BME280;75760;31.390;34.904;2024-01-30T00:45:31;95237.84;;;8.07;83.52
85343;BME280;75760;31.390;34.904;2024-01-30T00:47:56;95243.50;;;8.09;83.49
85343;BME280;75760;31.390;34.904;2024-01-30T00:50:22;95241.75;;;8.03;83.96
85343;BME280;75760;31.390;34.904;2024-01-30T00:52:47;95249.16;;;7.95;83.91
85343;BME280;75760;31.390;34.904;2024-01-30T00:55:13;95238.94;;;7.94;83.97
85343;BME280;75760;31.390;34.904;2024-01-30T00:57:39;95245.00;;;7.94;84.50
85343;BME280;75760;31.390;34.904;2024-01-30T01:00:06;95243.31;;;8.00;84.03
85343;BME280;75760;31.390;34.904;2024-01-30T01:02:34;95239.25;;;7.96;84.85
85343;BME280;75760;31.390;34.904;2024-01-30T01:05:00;95251.13;;;8.07;83.73
85343;BME280;75760;31.390;34.904;2024-01-30T01:07:25;95247.41;;;8.05;84.27
85343;BME280;75760;31.390;34.904;2024-01-30T01:09:51;95249.72;;;7.87;84.88
85343;BME280;75760;31.390;34.904;2024-01-30T01:12:16;95252.22;;;7.94;84.64
85343;BME280;75760;31.390;34.904;2024-01-30T01:14:42;95247.81;;;7.87;84.22
85343;BME280;75760;31.390;34.904;2024-01-30T01:17:08;95249.53;;;7.77;85.05
85343;BME280;75760;31.390;34.904;2024-01-30T01:19:33;95256.34;;;7.78;84.61
85343;BME280;75760;31.390;34.904;2024-01-30T01:21:59;95249.59;;;7.58;85.24
85343;BME280;75760;31.390;34.904;2024-01-30T01:24:24;95250.19;;;7.65;85.10
85343;BME280;75760;31.390;34.904;2024-01-30T01:26:50;95249.66;;;7.54;85.17
85343;BME280;75760;31.390;34.904;2024-01-30T01:29:16;95252.34;;;7.34;85.31
85343;BME280;75760;31.390;34.904;2024-01-30T01:31:41;95247.06;;;7.51;84.37
85343;BME280;75760;31.390;34.904;2024-01-30T01:34:10;95244.88;;;7.29;85.51
85343;BME280;75760;31.390;34.904;2024-01-30T01:36:36;95244.03;;;7.32;84.68
85343;BME280;75760;31.390;34.904;2024-01-30T01:39:02;95247.91;;;7.48;84.00
85343;BME280;75760;31.390;34.904;2024-01-30T01:41:31;95259.63;;;7.30;84.19
85343;BME280;75760;31.390;34.904;2024-01-30T01:43:57;95256.16;;;7.14;85.24
85343;BME280;75760;31.390;34.904;2024-01-30T01:46:24;95255.00;;;7.15;84.59
85343;BME280;75760;31.390;34.904;2024-01-30T01:48:50;95250.25;;;7.26;84.56
85343;BME280;75760;31.390;34.904;2024-01-30T01:51:16;95249.13;;;7.23;84.69
85343;BME280;75760;31.390;34.904;2024-01-30T01:53:42;95248.75;;;7.25;83.83
85343;BME280;75760;31.390;34.904;2024-01-30T01:56:08;95248.47;;;7.19;84.53
85343;BME280;75760;31.390;34.904;2024-01-30T01:58:34;95254.66;;;7.32;83.89
85343;BME280;75760;31.390;34.904;2024-01-30T02:01:00;95248.53;;;7.16;83.78
85343;BME280;75760;31.390;34.904;2024-01-30T02:03:27;95250.50;;;7.12;85.08
85343;BME280;75760;31.390;34.904;2024-01-30T02:05:53;95246.03;;;7.08;84.58
85343;BME280;75760;31.390;34.904;2024-01-30T02:08:19;95240.63;;;7.12;83.67
85343;BME280;75760;31.390;34.904;2024-01-30T02:10:45;95248.13;;;7.17;83.85
85343;BME280;75760;31.390;34.904;2024-01-30T02:13:11;95242.88;;;7.14;83.83
85343;BME280;75760;31.390;34.904;2024-01-30T02:15:36;95248.75;;;7.05;83.60
85343;BME280;75760;31.390;34.904;2024-01-30T02:18:02;95247.72;;;6.99;84.07
85343;BME280;75760;31.390;34.904;2024-01-30T02:20:30;95247.72;;;6.79;83.98
85343;BME280;75760;31.390;34.904;2024-01-30T02:22:58;95252.22;;;6.82;83.78
85343;BME280;75760;31.390;34.904;2024-01-30T02:25:39;95244.84;;;6.70;84.28
85343;BME280;75760;31.390;34.904;2024-01-30T02:28:13;95244.09;;;6.69;84.11
85343;BME280;75760;31.390;34.904;2024-01-30T02:30:39;95240.97;;;6.75;83.57
85343;BME280;75760;31.390;34.904;2024-01-30T02:33:05;95235.53;;;6.62;83.56
85343;BME280;75760;31.390;34.904;2024-01-30T02:35:30;95240.75;;;6.65;84.13
85343;BME280;75760;31.390;34.904;2024-01-30T02:37:56;95233.75;;;6.55;82.96
85343;BME280;75760;31.390;34.904;2024-01-30T02:40:22;95228.34;;;6.62;84.00
85343;BME280;75760;31.390;34.904;2024-01-30T02:42:47;95230.69;;;6.57;82.51
85343;BME280;75760;31.390;34.904;2024-01-30T02:45:13;95236.38;;;6.55;83.01
85343;BME280;75760;31.390;34.904;2024-01-30T02:47:39;95236.34;;;6.59;82.91
85343;BME280;75760;31.390;34.904;2024-01-30T02:50:05;95238.72;;;6.53;82.85
85343;BME280;75760;31.390;34.904;2024-01-30T02:52:31;95250.00;;;6.57;82.02
85343;BME280;75760;31.390;34.904;2024-01-30T02:54:57;95237.09;;;6.59;82.10
85343;BME280;75760;31.390;34.904;2024-01-30T02:57:23;95247.28;;;6.61;80.92
85343;BME280;75760;31.390;34.904;2024-01-30T02:59:48;95246.78;;;6.46;81.65
85343;BME280;75760;31.390;34.904;2024-01-30T03:02:14;95250.56;;;6.45;81.97
85343;BME280;75760;31.390;34.904;2024-01-30T03:04:43;95241.88;;;6.45;81.81
85343;BME280;75760;31.390;34.904;2024-01-30T03:07:09;95254.09;;;6.39;81.77
85343;BME280;75760;31.390;34.904;2024-01-30T03:09:34;95259.09;;;6.56;81.07
85343;BME280;75760;31.390;34.904;2024-01-30T03:12:00;95266.41;;;6.49;80.88
85343;BME280;75760;31.390;34.904;2024-01-30T03:14:26;95257.03;;;6.44;81.25
85343;BME280;75760;31.390;34.904;2024-01-30T03:16:52;95256.41;;;6.37;81.14
85343;BME280;75760;31.390;34.904;2024-01-30T03:19:17;95252.94;;;6.40;80.83
85343;BME280;75760;31.390;34.904;2024-01-30T03:21:44;95263.59;;;6.36;80.51
85343;BME280;75760;31.390;34.904;2024-01-30T03:24:09;95253.34;;;6.38;80.53
85343;BME280;75760;31.390;34.904;2024-01-30T03:26:35;95262.97;;;6.28;81.52
85343;BME280;75760;31.390;34.904;2024-01-30T03:29:01;95262.00;;;6.42;80.41
85343;BME280;75760;31.390;34.904;2024-01-30T03:31:26;95265.44;;;6.39;80.26
85343;BME280;75760;31.390;34.904;2024-01-30T03:33:52;95260.16;;;6.39;80.83
85343;BME280;75760;31.390;34.904;2024-01-30T03:36:18;95267.06;;;6.33;79.92
85343;BME280;75760;31.390;34.904;2024-01-30T03:38:43;95271.09;;;6.41;80.05
85343;BME280;75760;31.390;34.904;2024-01-30T03:41:09;95274.59;;;6.34;79.17
85343;BME280;75760;31.390;34.904;2024-01-30T03:43:36;95277.34;;;6.27;79.48
85343;BME280;75760;31.390;34.904;2024-01-30T03:46:02;95275.00;;;6.33;79.69
85343;BME280;75760;31.390;34.904;2024-01-30T03:48:28;95285.53;;;6.37;78.64
85343;BME280;75760;31.390;34.904;2024-01-30T03:50:54;95275.75;;;6.33;79.37
85343;BME280;75760;31.390;34.904;2024-01-30T03:53:20;95273.50;;;6.32;79.69
85343;BME280;75760;31.390;34.904;2024-01-30T03:55:45;95273.56;;;6.28;79.09
85343;BME280;75760;31.390;34.904;2024-01-30T03:58:11;95275.81;;;6.30;79.61
85343;BME280;75760;31.390;34.904;2024-01-30T04:00:36;95277.06;;;6.22;79.80
85343;BME280;75760;31.390;34.904;2024-01-30T04:03:02;95288.13;;;6.17;79.61
85343;BME280;75760;31.390;34.904;2024-01-30T04:05:28;95290.97;;;6.29;79.47
85343;BME280;75760;31.390;34.904;2024-01-30T04:07:54;95297.81;;;6.27;79.28
85343;BME280;75760;31.390;34.904;2024-01-30T04:10:19;95296.41;;;6.19;79.45
85343;BME280;75760;31.390;34.904;2024-01-30T04:12:45;95291.13;;;6.19;79.21
85343;BME280;75760;31.390;34.904;2024-01-30T04:15:11;95294.16;;;6.17;79.67
85343;BME280;75760;31.390;34.904;2024-01-30T04:17:36;95297.72;;;6.07;79.69
85343;BME280;75760;31.390;34.904;2024-01-30T04:20:02;95306.72;;;6.13;79.29
85343;BME280;75760;31.390;34.904;2024-01-30T04:22:28;95292.38;;;6.11;78.80
85343;BME280;75760;31.390;34.904;2024-01-30T04:24:53;95299.69;;;6.03;79.48
85343;BME280;75760;31.390;34.904;2024-01-30T04:27:19;95302.78;;;5.98;79.42
85343;BME280;75760;31.390;34.904;2024-01-30T04:29:45;95311.31;;;6.09;78.66
85343;BME280;75760;31.390;34.904;2024-01-30T04:32:10;95314.47;;;6.01;78.93
85343;BME280;75760;31.390;34.904;2024-01-30T04:34:36;95307.28;;;6.01;79.11
85343;BME280;75760;31.390;34.904;2024-01-30T04:37:02;95308.22;;;6.14;78.08
85343;BME280;75760;31.390;34.904;2024-01-30T04:39:28;95314.59;;;6.17;78.37
85343;BME280;75760;31.390;34.904;2024-01-30T04:41:54;95316.34;;;6.27;77.68
85343;BME280;75760;31.390;34.904;2024-01-30T04:44:19;95316.06;;;6.21;77.32
85343;BME280;75760;31.390;34.904;2024-01-30T04:46:45;95315.31;;;6.21;77.78
85343;BME280;75760;31.390;34.904;2024-01-30T04:49:11;95316.75;;;6.25;77.53
85343;BME280;75760;31.390;34.904;2024-01-30T04:51:36;95316.66;;;6.32;77.18
85343;BME280;75760;31.390;34.904;2024-01-30T04:54:02;95315.59;;;6.26;76.96
85343;BME280;75760;31.390;34.904;2024-01-30T04:56:27;95311.75;;;6.31;77.06
85343;BME280;75760;31.390;34.904;2024-01-30T04:58:53;95319.72;;;6.31;77.04
85343;BME280;75760;31.390;34.904;2024-01-30T05:01:19;95312.63;;;6.48;76.02
85343;BME280;75760;31.390;34.904;2024-01-30T05:03:44;95314.31;;;6.61;75.86
85343;BME280;75760;31.390;34.904;2024-01-30T05:06:10;95320.63;;;6.67;74.33
85343;BME280;75760;31.390;34.904;2024-01-30T05:08:36;95316.97;;;7.04;73.38
85343;BME280;75760;31.390;34.904;2024-01-30T05:11:07;95320.53;;;7.18;72.48
85343;BME280;75760;31.390;34.904;2024-01-30T05:13:33;95315.28;;;7.14;72.30
85343;BME280;75760;31.390;34.904;2024-01-30T05:15:58;95314.13;;;7.35;71.65
85343;BME280;75760;31.390;34.904;2024-01-30T05:18:24;95317.38;;;7.42;71.27
85343;BME280;75760;31.390;34.904;2024-01-30T05:20:50;95322.22;;;7.67;70.16
85343;BME280;75760;31.390;34.904;2024-01-30T05:23:16;95326.00;;;7.86;70.05
85343;BME280;75760;31.390;34.904;2024-01-30T05:25:42;95331.03;;;7.80;69.21
85343;BME280;75760;31.390;34.904;2024-01-30T05:28:07;95326.03;;;8.18;68.92
85343;BME280;75760;31.390;34.904;2024-01-30T05:30:33;95322.97;;;8.20;68.43
85343;BME280;75760;31.390;34.904;2024-01-30T05:32:59;95322.69;;;8.50;67.31
85343;BME280;75760;31.390;34.904;2024-01-30T05:35:24;95321.50;;;8.84;66.54
85343;BME280;75760;31.390;34.904;2024-01-30T05:37:50;95325.63;;;9.01;65.61
85343;BME280;75760;31.390;34.904;2024-01-30T05:40:16;95322.50;;;9.19;65.23
85343;BME280;75760;31.390;34.904;2024-01-30T05:42:42;95316.66;;;9.24;63.85
85343;BME280;75760;31.390;34.904;2024-01-30T05:45:08;95330.44;;;9.35;64.26
85343;BME280;75760;31.390;34.904;2024-01-30T05:47:36;95336.19;;;9.34;64.03
85343;BME280;75760;31.390;34.904;2024-01-30T05:50:02;95340.66;;;9.65;63.46
85343;BME280;75760;31.390;34.904;2024-01-30T05:52:28;95330.44;;;9.35;64.30
85343;BME280;75760;31.390;34.904;2024-01-30T05:54:54;95334.13;;;9.54;63.49
85343;BME280;75760;31.390;34.904;2024-01-30T05:57:20;95339.84;;;9.94;62.82
85343;BME280;75760;31.390;34.904;2024-01-30T05:59:45;95329.25;;;9.65;63.49
85343;BME280;75760;31.390;34.904;2024-01-30T06:02:13;95328.63;;;9.74;63.70
85343;BME280;75760;31.390;34.904;2024-01-30T06:04:39;95334.13;;;10.08;62.94
85343;BME280;75760;31.390;34.904;2024-01-30T06:07:04;95330.31;;;10.47;62.04
85343;BME280;75760;31.390;34.904;2024-01-30T06:09:31;95335.59;;;10.60;61.35
85343;BME280;75760;31.390;34.904;2024-01-30T06:11:58;95344.91;;;10.55;61.67
85343;BME280;75760;31.390;34.904;2024-01-30T06:14:23;95352.91;;;10.55;61.15
85343;BME280;75760;31.390;34.904;2024-01-30T06:16:49;95340.91;;;10.85;60.68
85343;BME280;75760;31.390;34.904;2024-01-30T06:19:15;95343.78;;;10.78;60.01
85343;BME280;75760;31.390;34.904;2024-01-30T06:21:41;95353.22;;;10.45;60.42
85343;BME280;75760;31.390;34.904;2024-01-30T06:24:06;95357.34;;;10.84;60.30
85343;BME280;75760;31.390;34.904;2024-01-30T06:26:33;95360.66;;;11.22;59.74
85343;BME280;75760;31.390;34.904;2024-01-30T06:28:59;95355.13;;;11.16;58.95
85343;BME280;75760;31.390;34.904;2024-01-30T06:31:24;95361.41;;;11.23;57.83
85343;BME280;75760;31.390;34.904;2024-01-30T06:33:50;95369.34;;;11.13;57.67
85343;BME280;75760;31.390;34.904;2024-01-30T06:36:16;95371.88;;;11.51;57.95
85343;BME280;75760;31.390;34.904;2024-01-30T06:38:41;95378.50;;;11.47;58.35
85343;BME280;75760;31.390;34.904;2024-01-30T06:41:07;95376.34;;;11.54;57.31
85343;BME280;75760;31.390;34.904;2024-01-30T06:43:33;95378.63;;;11.22;57.61
85343;BME280;75760;31.390;34.904;2024-01-30T06:45:58;95386.56;;;11.34;57.69
85343;BME280;75760;31.390;34.904;2024-01-30T06:48:25;95382.75;;;11.57;58.12
85343;BME280;75760;31.390;34.904;2024-01-30T06:50:53;95385.31;;;12.04;56.68
85343;BME280;75760;31.390;34.904;2024-01-30T06:53:19;95380.59;;;12.08;55.99
85343;BME280;75760;31.390;34.904;2024-01-30T06:55:45;95376.91;;;12.15;56.57
85343;BME280;75760;31.390;34.904;2024-01-30T06:58:10;95369.59;;;11.84;56.26
85343;BME280;75760;31.390;34.904;2024-01-30T07:00:36;95369.78;;;11.90;55.77
85343;BME280;75760;31.390;34.904;2024-01-30T07:03:02;95365.59;;;12.11;55.04
85343;BME280;75760;31.390;34.904;2024-01-30T07:05:27;95374.56;;;11.95;55.23
85343;BME280;75760;31.390;34.904;2024-01-30T07:07:53;95380.84;;;12.01;55.81
85343;BME280;75760;31.390;34.904;2024-01-30T07:10:19;95391.25;;;11.99;55.14
85343;BME280;75760;31.390;34.904;2024-01-30T07:12:44;95403.66;;;12.15;54.94
85343;BME280;75760;31.390;34.904;2024-01-30T07:15:10;95402.81;;;12.27;55.52
85343;BME280;75760;31.390;34.904;2024-01-30T07:17:36;95400.50;;;12.07;54.39
85343;BME280;75760;31.390;34.904;2024-01-30T07:20:01;95397.13;;;11.94;55.28
85343;BME280;75760;31.390;34.904;2024-01-30T07:22:29;95405.78;;;11.98;55.41
85343;BME280;75760;31.390;34.904;2024-01-30T07:24:55;95408.91;;;12.58;54.96
85343;BME280;75760;31.390;34.904;2024-01-30T07:27:21;95409.22;;;11.99;55.76
85343;BME280;75760;31.390;34.904;2024-01-30T07:29:47;95415.00;;;11.97;55.52
85343;BME280;75760;31.390;34.904;2024-01-30T07:32:12;95416.13;;;12.40;55.30
85343;BME280;75760;31.390;34.904;2024-01-30T07:34:38;95416.06;;;12.31;54.62
85343;BME280;75760;31.390;34.904;2024-01-30T07:37:04;95420.59;;;12.43;54.59
85343;BME280;75760;31.390;34.904;2024-01-30T07:39:29;95415.63;;;12.32;54.79
85343;BME280;75760;31.390;34.904;2024-01-30T07:41:55;95423.38;;;12.30;54.93
85343;BME280;75760;31.390;34.904;2024-01-30T07:44:20;95419.16;;;11.98;56.67
85343;BME280;75760;31.390;34.904;2024-01-30T07:46:46;95417.38;;;12.26;55.21
85343;BME280;75760;31.390;34.904;2024-01-30T07:49:12;95419.41;;;12.84;54.24
85343;BME280;75760;31.390;34.904;2024-01-30T07:51:39;95417.59;;;13.39;53.31
85343;BME280;75760;31.390;34.904;2024-01-30T07:54:05;95417.84;;;12.64;54.68
85343;BME280;75760;31.390;34.904;2024-01-30T07:56:31;95428.97;;;12.94;54.43
85343;BME280;75760;31.390;34.904;2024-01-30T07:58:57;95426.19;;;13.07;54.54
85343;BME280;75760;31.390;34.904;2024-01-30T08:01:22;95420.28;;;13.21;53.62
85343;BME280;75760;31.390;34.904;2024-01-30T08:03:48;95423.38;;;13.19;52.83
85343;BME280;75760;31.390;34.904;2024-01-30T08:06:14;95423.19;;;13.05;52.48
85343;BME280;75760;31.390;34.904;2024-01-30T08:08:39;95428.19;;;12.84;54.34
85343;BME280;75760;31.390;34.904;2024-01-30T08:11:05;95422.75;;;13.06;52.94
85343;BME280;75760;31.390;34.904;2024-01-30T08:13:30;95433.31;;;13.10;53.60
85343;BME280;75760;31.390;34.904;2024-01-30T08:15:56;95425.16;;;12.73;53.36
85343;BME280;75760;31.390;34.904;2024-01-30T08:18:22;95433.59;;;12.32;55.86
85343;BME280;75760;31.390;34.904;2024-01-30T08:20:47;95424.81;;;12.31;55.09
85343;BME280;75760;31.390;34.904;2024-01-30T08:23:14;95424.94;;;12.49;53.90
85343;BME280;75760;31.390;34.904;2024-01-30T08:25:40;95409.94;;;13.01;54.03
85343;BME280;75760;31.390;34.904;2024-01-30T08:28:05;95405.09;;;12.69;55.53
85343;BME280;75760;31.390;34.904;2024-01-30T08:30:32;95406.22;;;13.08;53.88
85343;BME280;75760;31.390;34.904;2024-01-30T08:32:58;95411.81;;;12.42;55.00
85343;BME280;75760;31.390;34.904;2024-01-30T08:35:23;95404.66;;;12.79;53.69
85343;BME280;75760;31.390;34.904;2024-01-30T08:37:49;95393.91;;;13.28;53.83
85343;BME280;75760;31.390;34.904;2024-01-30T08:40:15;95387.81;;;13.37;51.89
85343;BME280;75760;31.390;34.904;2024-01-30T08:42:40;95392.34;;;12.91;53.11
85343;BME280;75760;31.390;34.904;2024-01-30T08:45:06;95384.50;;;12.16;54.49
85343;BME280;75760;31.390;34.904;2024-01-30T08:47:32;95386.72;;;12.18;55.03
85343;BME280;75760;31.390;34.904;2024-01-30T08:49:58;95383.91;;;12.52;52.78
85343;BME280;75760;31.390;34.904;2024-01-30T08:52:24;95381.66;;;13.09;52.00
85343;BME280;75760;31.390;34.904;2024-01-30T08:54:50;95376.09;;;13.34;52.20
85343;BME280;75760;31.390;34.904;2024-01-30T08:57:15;95373.53;;;13.31;51.50
85343;BME280;75760;31.390;34.904;2024-01-30T08:59:41;95377.22;;;13.06;50.61
85343;BME280;75760;31.390;34.904;2024-01-30T09:02:09;95366.25;;;13.31;49.22
85343;BME280;75760;31.390;34.904;2024-01-30T09:04:35;95375.19;;;12.79;52.87
85343;BME280;75760;31.390;34.904;2024-01-30T09:07:01;95375.72;;;13.05;50.68
85343;BME280;75760;31.390;34.904;2024-01-30T09:09:26;95373.06;;;12.56;52.30
85343;BME280;75760;31.390;34.904;2024-01-30T09:11:52;95366.50;;;12.48;51.34
85343;BME280;75760;31.390;34.904;2024-01-30T09:14:17;95364.28;;;12.15;53.47
85343;BME280;75760;31.390;34.904;2024-01-30T09:16:43;95358.91;;;12.46;53.42
85343;BME280;75760;31.390;34.904;2024-01-30T09:19:09;95364.66;;;12.85;49.58
85343;BME280;75760;31.390;34.904;2024-01-30T09:21:34;95367.25;;;13.07;51.42
85343;BME280;75760;31.390;34.904;2024-01-30T09:24:03;95365.25;;;12.89;51.58
85343;BME280;75760;31.390;34.904;2024-01-30T09:26:29;95359.94;;;13.07;52.21
85343;BME280;75760;31.390;34.904;2024-01-30T09:28:55;95371.16;;;12.66;50.70
85343;BME280;75760;31.390;34.904;2024-01-30T09:31:20;95363.13;;;13.15;49.96
85343;BME280;75760;31.390;34.904;2024-01-30T09:33:46;95362.66;;;13.16;50.43
85343;BME280;75760;31.390;34.904;2024-01-30T09:36:13;95360.41;;;12.47;51.25
85343;BME280;75760;31.390;34.904;2024-01-30T09:38:41;95371.19;;;12.04;51.66
85343;BME280;75760;31.390;34.904;2024-01-30T09:41:09;95362.94;;;11.89;53.27
85343;BME280;75760;31.390;34.904;2024-01-30T09:43:38;95354.53;;;12.00;53.06
85343;BME280;75760;31.390;34.904;2024-01-30T09:46:05;95355.09;;;12.25;53.35
85343;BME280;75760;31.390;34.904;2024-01-30T09:48:32;95350.22;;;12.82;52.28
85343;BME280;75760;31.390;34.904;2024-01-30T09:50:59;95350.94;;;12.64;52.99
85343;BME280;75760;31.390;34.904;2024-01-30T09:53:25;95345.13;;;12.57;52.28
85343;BME280;75760;31.390;34.904;2024-01-30T09:55:51;95342.06;;;12.95;51.59
85343;BME280;75760;31.390;34.904;2024-01-30T09:58:17;95332.91;;;13.32;50.91
85343;BME280;75760;31.390;34.904;2024-01-30T10:00:43;95334.50;;;13.12;50.81
85343;BME280;75760;31.390;34.904;2024-01-30T10:03:09;95340.25;;;12.74;50.96
85343;BME280;75760;31.390;34.904;2024-01-30T10:05:36;95332.91;;;12.16;52.32
85343;BME280;75760;31.390;34.904;2024-01-30T10:08:06;95327.13;;;12.17;50.59
85343;BME280;75760;31.390;34.904;2024-01-30T10:10:34;95321.06;;;12.26;51.68
85343;BME280;75760;31.390;34.904;2024-01-30T10:13:00;95315.69;;;12.57;50.43
85343;BME280;75760;31.390;34.904;2024-01-30T10:15:28;95320.41;;;12.53;50.25
85343;BME280;75760;31.390;34.904;2024-01-30T10:17:53;95312.84;;;12.60;51.67
85343;BME280;75760;31.390;34.904;2024-01-30T10:20:19;95307.69;;;12.84;50.74
85343;BME280;75760;31.390;34.904;2024-01-30T10:22:48;95306.72;;;12.51;49.76
85343;BME280;75760;31.390;34.904;2024-01-30T10:25:14;95307.06;;;12.62;49.94
85343;BME280;75760;31.390;34.904;2024-01-30T10:27:40;95292.78;;;12.65;50.10
85343;BME280;75760;31.390;34.904;2024-01-30T10:30:07;95296.50;;;12.58;50.27
85343;BME280;75760;31.390;34.904;2024-01-30T10:32:33;95300.28;;;12.30;50.55
85343;BME280;75760;31.390;34.904;2024-01-30T10:34:58;95305.31;;;12.19;49.75
85343;BME280;75760;31.390;34.904;2024-01-30T10:37:25;95295.91;;;12.14;52.36
85343;BME280;75760;31.390;34.904;2024-01-30T10:39:53;95292.50;;;12.14;50.98
85343;BME280;75760;31.390;34.904;2024-01-30T10:42:24;95288.69;;;11.93;51.24
85343;BME280;75760;31.390;34.904;2024-01-30T10:45:06;95295.72;;;12.00;51.45
85343;BME280;75760;31.390;34.904;2024-01-30T10:47:59;95291.09;;;12.40;49.81
85343;BME280;75760;31.390;34.904;2024-01-30T10:50:25;95290.38;;;12.49;49.42
85343;BME280;75760;31.390;34.904;2024-01-30T10:52:51;95283.28;;;12.82;49.59
85343;BME280;75760;31.390;34.904;2024-01-30T10:55:18;95286.41;;;12.90;48.08
85343;BME280;75760;31.390;34.904;2024-01-30T10:57:44;95285.53;;;12.84;48.64
85343;BME280;75760;31.390;34.904;2024-01-30T11:00:14;95287.41;;;12.56;48.05
85343;BME280;75760;31.390;34.904;2024-01-30T11:02:45;95288.28;;;12.44;49.45
85343;BME280;75760;31.390;34.904;2024-01-30T11:05:12;95287.56;;;12.52;49.69
85343;BME280;75760;31.390;34.904;2024-01-30T11:07:39;95273.22;;;12.28;49.85
85343;BME280;75760;31.390;34.904;2024-01-30T11:10:11;95273.75;;;12.72;48.05
85343;BME280;75760;31.390;34.904;2024-01-30T11:12:40;95270.66;;;12.83;48.03
85343;BME280;75760;31.390;34.904;2024-01-30T11:15:07;95264.41;;;12.77;47.47
85343;BME280;75760;31.390;34.904;2024-01-30T11:20:22;95269.88;;;12.55;48.75
85343;BME280;75760;31.390;34.904;2024-01-30T11:22:52;95274.47;;;12.54;48.38
85343;BME280;75760;31.390;34.904;2024-01-30T11:25:20;95271.69;;;13.04;48.73
85343;BME280;75760;31.390;34.904;2024-01-30T11:27:47;95269.75;;;12.77;46.91
85343;BME280;75760;31.390;34.904;2024-01-30T11:30:30;95276.69;;;12.38;47.01
85343;BME280;75760;31.390;34.904;2024-01-30T11:33:06;95266.16;;;12.80;46.79
85343;BME280;75760;31.390;34.904;2024-01-30T11:35:33;95270.94;;;12.85;45.72
85343;BME280;75760;31.390;34.904;2024-01-30T11:38:00;95265.88;;;12.69;46.52
85343;BME280;75760;31.390;34.904;2024-01-30T11:40:29;95261.97;;;12.51;46.18
85343;BME280;75760;31.390;34.904;2024-01-30T11:42:56;95265.69;;;12.54;44.84
85343;BME280;75760;31.390;34.904;2024-01-30T11:45:23;95267.66;;;12.72;46.35
85343;BME280;75760;31.390;34.904;2024-01-30T11:47:49;95260.97;;;12.58;46.80
85343;BME280;75760;31.390;34.904;2024-01-30T11:50:15;95258.00;;;12.65;46.82
85343;BME280;75760;31.390;34.904;2024-01-30T11:52:41;95259.19;;;12.91;45.91
85343;BME280;75760;31.390;34.904;2024-01-30T11:55:07;95272.28;;;12.80;46.11
85343;BME280;75760;31.390;34.904;2024-01-30T11:57:34;95266.84;;;12.35;46.42
85343;BME280;75760;31.390;34.904;2024-01-30T12:00:01;95265.44;;;12.12;48.16
85343;BME280;75760;31.390;34.904;2024-01-30T12:02:29;95262.97;;;11.86;47.77
85343;BME280;75760;31.390;34.904;2024-01-30T12:04:54;95264.44;;;11.78;48.85
85343;BME280;75760;31.390;34.904;2024-01-30T12:07:20;95262.56;;;11.97;48.32
85343;BME280;75760;31.390;34.904;2024-01-30T12:09:53;95263.91;;;12.51;48.01
85343;BME280;75760;31.390;34.904;2024-01-30T12:12:22;95266.47;;;12.82;47.83
85343;BME280;75760;31.390;34.904;2024-01-30T12:14:49;95267.34;;;12.70;46.42
85343;BME280;75760;31.390;34.904;2024-01-30T12:17:29;95263.66;;;12.67;45.74
85343;BME280;75760;31.390;34.904;2024-01-30T12:22:44;95271.69;;;12.76;47.34
85343;BME280;75760;31.390;34.904;2024-01-30T12:25:15;95269.31;;;12.96;46.57
85343;BME280;75760;31.390;34.904;2024-01-30T12:27:49;95267.84;;;12.86;45.79
85343;BME280;75760;31.390;34.904;2024-01-30T12:30:16;95264.66;;;12.70;46.43
85343;BME280;75760;31.390;34.904;2024-01-30T12:32:44;95264.41;;;12.68;46.07
85343;BME280;75760;31.390;34.904;2024-01-30T12:35:11;95264.09;;;12.66;47.04
85343;BME280;75760;31.390;34.904;2024-01-30T12:37:38;95270.94;;;12.67;47.07
85343;BME280;75760;31.390;34.904;2024-01-30T12:40:04;95268.41;;;12.81;47.19
85343;BME280;75760;31.390;34.904;2024-01-30T12:42:31;95271.06;;;12.63;47.21
85343;BME280;75760;31.390;34.904;2024-01-30T12:44:57;95272.69;;;12.51;46.56
85343;BME280;75760;31.390;34.904;2024-01-30T12:47:24;95273.81;;;12.32;47.18
85343;BME280;75760;31.390;34.904;2024-01-30T12:49:50;95276.56;;;12.01;46.81
85343;BME280;75760;31.390;34.904;2024-01-30T12:52:19;95275.34;;;12.02;47.41
85343;BME280;75760;31.390;34.904;2024-01-30T13:07:16;95279.16;;;12.32;48.68
85343;BME280;75760;31.390;34.904;2024-01-30T13:09:42;95278.03;;;12.51;47.88